createdAt,value
2018-11-06T00:01:43.059Z,20.50
2018-11-06T00:04:16.512Z,20.40
2018-11-06T00:06:49.106Z,20.30
2018-11-06T00:09:21.989Z,20.30
2018-11-06T00:11:54.649Z,20.30
2018-11-06T00:14:27.796Z,20.30
2018-11-06T00:19:38.584Z,20.10
2018-11-06T00:22:11.705Z,20.00
2018-11-06T00:24:44.249Z,19.90
2018-11-06T00:27:17.528Z,19.80
2018-11-06T00:29:51.088Z,19.70
2018-11-06T00:32:25.257Z,19.70
2018-11-06T00:34:58.523Z,19.60
2018-11-06T00:37:31.702Z,19.60
2018-11-06T00:40:05.056Z,19.60
2018-11-06T00:42:37.828Z,19.50
2018-11-06T00:45:14.911Z,19.50
2018-11-06T00:47:51.576Z,19.60
2018-11-06T00:50:24.724Z,19.50
2018-11-06T00:52:57.603Z,19.60
2018-11-06T00:55:30.428Z,19.50
2018-11-06T00:58:03.552Z,19.60
2018-11-06T01:00:37.103Z,19.70
2018-11-06T01:03:12.518Z,19.60
2018-11-06T01:05:47.116Z,19.60
2018-11-06T01:08:20.703Z,19.50
2018-11-06T01:10:54.386Z,19.60
2018-11-06T01:13:27.830Z,19.60
2018-11-06T01:19:21.986Z,19.60
2018-11-06T01:21:56.194Z,19.60
2018-11-06T01:24:52.520Z,19.50
2018-11-06T01:27:24.992Z,19.40
2018-11-06T01:33:29.696Z,19.40
2018-11-06T01:36:02.396Z,19.40
2018-11-06T01:38:35.264Z,19.40
2018-11-06T01:41:08.154Z,19.40
2018-11-06T01:43:40.857Z,19.40
2018-11-06T01:46:13.678Z,19.30
2018-11-06T01:48:46.413Z,19.30
2018-11-06T01:51:19.051Z,19.30
2018-11-06T01:53:51.726Z,19.40
2018-11-06T01:56:24.314Z,19.40
2018-11-06T01:58:57.125Z,19.30
2018-11-06T02:01:29.788Z,19.30
2018-11-06T02:04:03.017Z,19.20
2018-11-06T02:06:36.092Z,19.00
2018-11-06T02:09:12.412Z,18.90
2018-11-06T02:11:45.510Z,18.80
2018-11-06T02:14:19.059Z,18.70
2018-11-06T02:16:51.853Z,18.70
2018-11-06T02:19:25.417Z,18.70
2018-11-06T02:21:58.846Z,18.70
2018-11-06T02:24:32.577Z,18.70
2018-11-06T02:27:05.333Z,18.60
2018-11-06T02:29:38.941Z,18.60
2018-11-06T02:32:12.867Z,18.50
2018-11-06T02:34:46.080Z,18.50
2018-11-06T02:37:19.643Z,18.50
2018-11-06T02:39:52.598Z,18.50
2018-11-06T02:42:26.394Z,18.40
2018-11-06T02:45:05.813Z,18.40
2018-11-06T02:47:39.580Z,18.30
2018-11-06T02:50:14.152Z,18.40
2018-11-06T02:52:47.567Z,18.30
2018-11-06T02:55:20.972Z,18.30
2018-11-06T02:57:54.243Z,18.30
2018-11-06T03:00:27.944Z,18.20
2018-11-06T03:03:01.464Z,18.10
2018-11-06T03:05:36.587Z,18.00
2018-11-06T03:08:14.225Z,18.00
2018-11-06T03:10:52.928Z,18.00
2018-11-06T03:13:28.384Z,17.90
2018-11-06T03:16:05.724Z,17.80
2018-11-06T03:18:38.316Z,17.90
2018-11-06T03:21:12.079Z,17.90
2018-11-06T03:23:45.283Z,17.90
2018-11-06T03:26:18.701Z,17.80
2018-11-06T03:28:51.635Z,17.70
2018-11-06T03:34:46.406Z,17.60
2018-11-06T03:37:19.071Z,17.50
2018-11-06T03:39:52.355Z,17.40
2018-11-06T03:42:25.365Z,17.40
2018-11-06T03:44:58.648Z,17.30
2018-11-06T03:47:33.608Z,17.30
2018-11-06T03:53:28.109Z,17.30
2018-11-06T03:56:00.519Z,17.20
2018-11-06T03:58:35.751Z,17.30
2018-11-06T04:01:08.901Z,17.30
2018-11-06T04:14:48.406Z,17.30
2018-11-06T04:17:21.774Z,17.60
2018-11-06T04:23:15.984Z,17.60
2018-11-06T04:25:49.218Z,17.60
2018-11-06T04:28:22.740Z,17.70
2018-11-06T04:30:56.048Z,17.60
2018-11-06T04:33:29.443Z,17.70
2018-11-06T04:36:02.569Z,17.70
2018-11-06T04:41:56.650Z,17.70
2018-11-06T04:47:51.091Z,17.80
2018-11-06T04:50:24.665Z,17.80
2018-11-06T04:52:57.979Z,17.80
2018-11-06T04:55:31.260Z,17.80
2018-11-06T04:58:04.198Z,17.80
2018-11-06T05:00:37.383Z,17.80
2018-11-06T05:03:10.401Z,17.90
2018-11-06T05:05:43.594Z,17.90
2018-11-06T05:08:16.782Z,17.90
2018-11-06T05:10:50.229Z,17.90
2018-11-06T05:13:49.436Z,17.90
2018-11-06T05:16:22.351Z,17.90
2018-11-06T05:18:55.174Z,17.90
2018-11-06T05:21:28.047Z,17.80
2018-11-06T05:24:01.277Z,17.80
2018-11-06T05:26:34.151Z,17.70
2018-11-06T05:32:39.000Z,17.60
2018-11-06T05:35:13.596Z,17.50
2018-11-06T05:37:46.714Z,17.50
2018-11-06T05:40:28.808Z,17.60
2018-11-06T05:43:01.260Z,17.50
2018-11-06T05:45:34.681Z,17.50
2018-11-06T05:48:08.610Z,17.50
2018-11-06T05:50:41.606Z,17.50
2018-11-06T05:53:15.029Z,17.40
2018-11-06T05:55:48.518Z,17.40
2018-11-06T05:58:22.078Z,17.40
2018-11-06T06:00:55.363Z,17.40
2018-11-06T06:03:28.508Z,17.40
2018-11-06T06:06:01.504Z,17.30
2018-11-06T06:08:34.916Z,17.30
2018-11-06T06:11:08.086Z,17.30
2018-11-06T06:13:41.164Z,17.30
2018-11-06T06:16:14.329Z,17.20
2018-11-06T06:18:47.632Z,17.10
2018-11-06T06:21:20.608Z,17.10
2018-11-06T06:23:53.970Z,17.10
2018-11-06T06:26:26.798Z,17.10
2018-11-06T06:28:59.699Z,17.10
2018-11-06T06:31:32.895Z,17.10
2018-11-06T06:34:06.331Z,17.10
2018-11-06T06:36:39.534Z,17.20
2018-11-06T06:39:12.785Z,17.20
2018-11-06T06:41:45.910Z,17.20
2018-11-06T06:44:18.968Z,17.30
2018-11-06T06:46:52.432Z,17.30
2018-11-06T06:49:25.553Z,17.30
2018-11-06T06:51:58.690Z,17.30
2018-11-06T06:54:32.256Z,17.20
2018-11-06T06:57:05.350Z,17.20
2018-11-06T07:03:01.011Z,17.20
2018-11-06T07:05:34.724Z,17.10
2018-11-06T07:08:08.557Z,17.00
2018-11-06T07:10:42.022Z,17.00
2018-11-06T07:13:15.827Z,17.00
2018-11-06T07:15:49.331Z,17.00
2018-11-06T07:18:51.061Z,17.10
2018-11-06T07:21:24.698Z,17.10
2018-11-06T07:23:58.246Z,17.10
2018-11-06T07:26:31.792Z,17.10
2018-11-06T07:29:05.313Z,17.20
2018-11-06T07:31:38.202Z,17.20
2018-11-06T07:34:11.898Z,17.20
2018-11-06T07:36:45.406Z,17.30
2018-11-06T07:42:42.554Z,17.30
2018-11-06T07:48:36.927Z,17.20
2018-11-06T07:51:10.147Z,17.20
2018-11-06T07:53:43.468Z,17.10
2018-11-06T07:56:16.775Z,17.10
2018-11-06T07:58:50.255Z,17.20
2018-11-06T08:01:23.360Z,17.10
2018-11-06T08:03:56.747Z,17.10
2018-11-06T08:06:30.064Z,17.10
2018-11-06T08:09:04.469Z,17.00
2018-11-06T08:11:38.848Z,17.00
2018-11-06T08:14:12.129Z,16.90
2018-11-06T08:16:45.702Z,16.90
2018-11-06T08:19:19.487Z,16.90
2018-11-06T08:21:52.861Z,16.90
2018-11-06T08:24:26.345Z,17.00
2018-11-06T08:26:59.706Z,17.00
2018-11-06T08:29:33.470Z,17.00
2018-11-06T08:32:07.391Z,17.00
2018-11-06T08:34:40.830Z,17.00
2018-11-06T08:37:14.148Z,17.10
2018-11-06T08:39:47.792Z,17.10
2018-11-06T08:42:21.306Z,17.20
2018-11-06T08:44:54.693Z,17.20
2018-11-06T08:47:28.364Z,17.20
2018-11-06T08:50:00.043Z,17.20
2018-11-06T08:52:31.577Z,17.20
2018-11-06T08:55:03.098Z,17.20
2018-11-06T08:57:34.624Z,17.20
2018-11-06T09:00:06.374Z,17.10
2018-11-06T09:02:39.230Z,17.10
2018-11-06T09:05:12.592Z,17.10
2018-11-06T09:11:00.764Z,16.90
2018-11-06T09:16:42.158Z,16.80
2018-11-06T09:19:13.232Z,16.80
2018-11-06T09:21:44.550Z,16.90
2018-11-06T09:24:15.928Z,16.90
2018-11-06T09:26:47.022Z,16.90
2018-11-06T09:29:18.104Z,16.90
2018-11-06T09:35:01.592Z,16.90
2018-11-06T09:37:32.867Z,16.90
2018-11-06T09:40:04.138Z,16.90
2018-11-06T09:42:35.647Z,16.90
2018-11-06T09:45:37.327Z,16.90
2018-11-06T09:48:08.341Z,16.90
2018-11-06T09:50:39.529Z,16.90
2018-11-06T09:53:10.822Z,17.00
2018-11-06T09:55:42.235Z,17.00
2018-11-06T09:58:13.448Z,17.00
2018-11-06T10:00:44.724Z,17.00
2018-11-06T10:03:15.860Z,16.90
2018-11-06T10:08:48.215Z,16.90
2018-11-06T10:11:19.763Z,16.90
2018-11-06T10:13:51.130Z,16.80
2018-11-06T10:16:22.142Z,16.80
2018-11-06T10:18:53.788Z,16.90
2018-11-06T10:21:24.723Z,16.80
2018-11-06T10:23:56.125Z,16.80
2018-11-06T10:26:27.196Z,16.80
2018-11-06T10:28:58.526Z,16.80
2018-11-06T10:31:29.481Z,16.70
2018-11-06T10:34:00.441Z,16.80
2018-11-06T10:36:31.757Z,16.70
2018-11-06T10:39:02.779Z,16.70
2018-11-06T10:41:33.795Z,16.80
2018-11-06T10:44:05.102Z,16.70
2018-11-06T10:46:36.264Z,16.80
2018-11-06T10:49:08.039Z,16.70
2018-11-06T10:51:39.306Z,16.60
2018-11-06T10:54:10.315Z,16.60
2018-11-06T10:56:41.385Z,16.50
2018-11-06T10:59:12.599Z,16.40
2018-11-06T11:01:48.015Z,16.40
2018-11-06T11:04:25.041Z,16.40
2018-11-06T11:06:56.911Z,16.30
2018-11-06T11:09:28.469Z,16.40
2018-11-06T11:11:59.504Z,16.40
2018-11-06T11:14:30.849Z,16.40
2018-11-06T11:17:01.685Z,16.40
2018-11-06T11:19:32.906Z,16.40
2018-11-06T11:22:04.104Z,16.40
2018-11-06T11:24:35.284Z,16.30
2018-11-06T11:27:06.267Z,16.20
2018-11-06T11:29:37.561Z,16.20
2018-11-06T11:32:09.094Z,16.20
2018-11-06T11:34:39.907Z,16.20
2018-11-06T11:37:11.167Z,16.20
2018-11-06T11:39:42.222Z,16.20
2018-11-06T11:42:13.723Z,16.20
2018-11-06T11:44:45.007Z,16.20
2018-11-06T11:50:28.406Z,16.30
2018-11-06T11:53:00.654Z,16.30
2018-11-06T11:55:31.653Z,16.40
2018-11-06T11:58:02.646Z,16.40
2018-11-06T12:00:34.058Z,16.40
2018-11-06T12:03:04.964Z,16.40
2018-11-06T12:05:36.479Z,16.40
2018-11-06T12:08:07.452Z,16.40
2018-11-06T12:10:38.667Z,16.40
2018-11-06T12:13:09.666Z,16.40
2018-11-06T12:15:40.874Z,16.40
2018-11-06T12:18:12.416Z,16.50
2018-11-06T12:21:15.393Z,16.40
2018-11-06T12:23:48.067Z,16.40
2018-11-06T12:26:19.519Z,16.40
2018-11-06T12:28:50.581Z,16.40
2018-11-06T12:31:22.205Z,16.40
2018-11-06T12:33:53.340Z,16.50
2018-11-06T12:36:24.747Z,16.50
2018-11-06T12:38:56.260Z,16.50
2018-11-06T12:41:27.537Z,16.60
2018-11-06T12:43:59.362Z,16.80
2018-11-06T12:46:30.715Z,17.20
2018-11-06T12:49:01.875Z,17.80
2018-11-06T12:51:33.258Z,18.40
2018-11-06T12:54:04.632Z,18.60
2018-11-06T12:56:36.379Z,18.90
2018-11-06T12:59:07.519Z,19.00
2018-11-06T13:01:38.533Z,19.50
2018-11-06T13:04:09.449Z,19.90
2018-11-06T13:06:40.797Z,19.70
2018-11-06T13:09:12.544Z,19.50
2018-11-06T13:11:43.810Z,19.30
2018-11-06T13:14:14.394Z,19.30
2018-11-06T13:16:46.838Z,19.90
2018-11-06T13:19:18.327Z,20.80
2018-11-06T13:21:49.508Z,21.30
2018-11-06T13:24:20.460Z,21.10
2018-11-06T13:26:52.149Z,20.70
2018-11-06T13:29:23.231Z,20.00
2018-11-06T13:31:56.757Z,19.80
2018-11-06T13:37:35.338Z,20.80
2018-11-06T13:40:06.311Z,20.40
2018-11-06T13:42:37.557Z,19.70
2018-11-06T13:45:11.069Z,19.60
2018-11-06T13:47:42.325Z,19.80
2018-11-06T13:50:13.390Z,20.60
2018-11-06T13:52:49.367Z,21.10
2018-11-06T13:55:20.036Z,21.30
2018-11-06T13:57:52.067Z,21.70
2018-11-06T14:00:23.411Z,21.60
2018-11-06T14:02:55.131Z,21.10
2018-11-06T14:05:25.734Z,21.60
2018-11-06T14:07:56.321Z,22.20
2018-11-06T14:10:27.485Z,22.10
2018-11-06T14:12:57.982Z,21.90
2018-11-06T14:15:29.820Z,22.00
2018-11-06T14:18:01.267Z,21.50
2018-11-06T14:20:31.936Z,20.40
2018-11-06T14:23:04.845Z,20.00
2018-11-06T14:25:36.262Z,19.80
2018-11-06T14:28:07.648Z,19.70
2018-11-06T14:30:46.811Z,19.60
2018-11-06T14:33:17.713Z,19.50
2018-11-06T14:35:49.244Z,19.90
2018-11-06T14:38:20.124Z,20.90
2018-11-06T14:43:53.734Z,22.60
2018-11-06T14:46:37.177Z,22.60
2018-11-06T14:49:29.729Z,21.80
2018-11-06T14:52:18.203Z,22.20
2018-11-06T14:55:06.781Z,22.50
2018-11-06T14:57:38.594Z,23.40
2018-11-06T15:00:20.117Z,23.50
2018-11-06T15:02:53.496Z,23.00
2018-11-06T15:05:24.574Z,22.00
2018-11-06T15:07:55.154Z,22.30
2018-11-06T15:10:29.782Z,22.50
2018-11-06T15:13:00.994Z,21.90
2018-11-06T15:15:32.103Z,22.50
2018-11-06T15:18:06.984Z,23.20
2018-11-06T15:20:37.980Z,23.00
2018-11-06T15:23:09.015Z,22.30
2018-11-06T15:25:39.638Z,23.10
2018-11-06T15:28:12.309Z,23.40
2018-11-06T15:30:43.947Z,22.60
2018-11-06T15:33:17.648Z,22.30
2018-11-06T15:35:51.702Z,23.00
2018-11-06T15:38:23.186Z,23.50
2018-11-06T15:40:55.000Z,22.70
2018-11-06T15:43:27.750Z,22.80
2018-11-06T15:46:01.498Z,22.20
2018-11-06T15:48:33.169Z,22.30
2018-11-06T15:51:05.585Z,23.20
2018-11-06T15:53:37.288Z,23.70
2018-11-06T15:56:09.634Z,23.00
2018-11-06T15:58:42.888Z,22.90
2018-11-06T16:01:14.922Z,22.60
2018-11-06T16:03:52.557Z,22.60
2018-11-06T16:06:26.848Z,23.70
2018-11-06T16:09:02.511Z,24.40
2018-11-06T16:11:38.674Z,24.90
2018-11-06T16:14:13.764Z,24.60
2018-11-06T16:16:47.624Z,24.70
2018-11-06T16:19:18.148Z,24.40
2018-11-06T16:21:50.690Z,24.40
2018-11-06T16:24:22.933Z,25.40
2018-11-06T16:26:55.576Z,25.10
2018-11-06T16:29:35.174Z,24.60
2018-11-06T16:32:08.351Z,24.70
2018-11-06T16:34:41.898Z,24.00
2018-11-06T16:37:15.478Z,24.30
2018-11-06T16:39:47.949Z,24.80
2018-11-06T16:42:20.453Z,24.40
2018-11-06T16:44:53.572Z,24.30
2018-11-06T16:47:25.892Z,24.10
2018-11-06T16:50:02.497Z,23.50
2018-11-06T16:52:35.056Z,23.00
2018-11-06T16:55:09.753Z,22.70
2018-11-06T16:57:46.257Z,22.50
2018-11-06T17:00:23.355Z,22.30
2018-11-06T17:02:55.878Z,22.60
2018-11-06T17:05:28.339Z,23.40
2018-11-06T17:08:00.801Z,24.00
2018-11-06T17:10:35.056Z,23.90
2018-11-06T17:13:12.321Z,23.90
2018-11-06T17:15:50.830Z,24.50
2018-11-06T17:18:29.326Z,25.40
2018-11-06T17:21:02.792Z,26.20
2018-11-06T17:24:05.329Z,25.10
2018-11-06T17:26:36.250Z,25.80
2018-11-06T17:29:08.734Z,25.50
2018-11-06T17:31:42.452Z,24.30
2018-11-06T17:34:15.020Z,24.20
2018-11-06T17:36:47.702Z,24.90
2018-11-06T17:39:22.508Z,25.00
2018-11-06T17:41:53.284Z,25.80
2018-11-06T17:44:23.842Z,26.50
2018-11-06T17:46:58.866Z,25.90
2018-11-06T17:49:32.440Z,26.10
2018-11-06T17:52:03.628Z,26.20
2018-11-06T17:54:35.622Z,26.60
2018-11-06T17:57:09.864Z,26.70
2018-11-06T18:03:23.627Z,27.00
2018-11-06T18:05:55.021Z,27.70
2018-11-06T18:08:28.609Z,27.00
2018-11-06T18:11:04.665Z,25.50
2018-11-06T18:13:37.913Z,25.10
2018-11-06T18:16:13.933Z,25.40
2018-11-06T18:18:45.570Z,26.00
2018-11-06T18:21:19.966Z,26.50
2018-11-06T18:23:51.267Z,26.90
2018-11-06T18:26:27.058Z,25.80
2018-11-06T18:28:57.828Z,25.50
2018-11-06T18:31:30.932Z,26.10
2018-11-06T18:34:01.517Z,25.70
2018-11-06T18:36:33.537Z,25.90
2018-11-06T18:39:05.467Z,26.00
2018-11-06T18:41:36.421Z,26.30
2018-11-06T18:44:09.078Z,26.70
2018-11-06T18:46:40.256Z,26.90
2018-11-06T18:49:15.003Z,27.30
2018-11-06T18:51:46.649Z,26.70
2018-11-06T18:54:18.098Z,26.50
2018-11-06T18:56:50.749Z,26.50
2018-11-06T18:59:22.781Z,26.90
2018-11-06T19:01:55.114Z,27.00
2018-11-06T19:04:38.524Z,26.10
2018-11-06T19:10:17.741Z,26.90
2018-11-06T19:12:52.433Z,26.40
2018-11-06T19:15:29.402Z,25.90
2018-11-06T19:18:07.785Z,25.20
2018-11-06T19:20:39.471Z,25.80
2018-11-06T19:23:11.052Z,25.80
2018-11-06T19:25:48.199Z,25.90
2018-11-06T19:28:21.475Z,26.10
2018-11-06T19:31:07.136Z,26.00
2018-11-06T19:33:55.553Z,26.00
2018-11-06T19:36:34.596Z,26.70
2018-11-06T19:39:28.853Z,26.70
2018-11-06T19:42:20.225Z,26.40
2018-11-06T19:45:18.317Z,25.60
2018-11-06T19:48:18.964Z,25.20
2018-11-06T19:51:13.461Z,25.50
2018-11-06T19:54:11.712Z,25.50
2018-11-06T20:00:17.295Z,25.70
2018-11-06T20:02:49.888Z,26.90
2018-11-06T20:05:21.660Z,26.50
2018-11-06T20:07:53.607Z,26.50
2018-11-06T20:10:26.218Z,26.70
2018-11-06T20:12:57.981Z,25.90
2018-11-06T20:15:29.551Z,25.50
2018-11-06T20:18:01.259Z,25.70
2018-11-06T20:20:32.621Z,26.00
2018-11-06T20:23:03.432Z,27.20
2018-11-06T20:25:34.416Z,27.10
2018-11-06T20:28:05.197Z,26.40
2018-11-06T20:30:37.898Z,25.90
2018-11-06T20:33:10.998Z,24.90
2018-11-06T20:35:42.061Z,24.40
2018-11-06T20:38:15.226Z,24.20
2018-11-06T20:40:48.134Z,24.60
2018-11-06T20:43:21.595Z,24.90
2018-11-06T20:45:55.482Z,25.00
2018-11-06T20:48:28.370Z,25.40
2018-11-06T20:50:59.831Z,26.20
2018-11-06T20:53:31.542Z,26.40
2018-11-06T20:56:02.760Z,26.30
2018-11-06T20:58:33.895Z,26.70
2018-11-06T21:01:04.834Z,26.30
2018-11-06T21:03:36.292Z,25.90
2018-11-06T21:06:09.072Z,25.20
2018-11-06T21:08:41.963Z,24.70
2018-11-06T21:11:14.643Z,24.40
2018-11-06T21:13:47.305Z,24.30
2018-11-06T21:16:20.818Z,24.10
2018-11-06T21:18:54.620Z,24.00
2018-11-06T21:21:27.893Z,24.30
2018-11-06T21:24:01.566Z,24.80
2018-11-06T21:29:53.689Z,25.40
2018-11-06T21:32:26.201Z,25.50
2018-11-06T21:34:57.842Z,25.30
2018-11-06T21:37:30.873Z,25.30
2018-11-06T21:40:07.730Z,25.60
2018-11-06T21:42:39.802Z,25.10
2018-11-06T21:45:13.557Z,24.70
2018-11-06T21:47:45.844Z,24.10
2018-11-06T21:50:21.848Z,23.70
2018-11-06T21:52:53.870Z,23.30
2018-11-06T21:55:25.049Z,23.20
2018-11-06T21:57:56.230Z,23.10
2018-11-06T22:00:27.820Z,23.10
2018-11-06T22:02:59.189Z,23.20
2018-11-06T22:05:31.878Z,23.30
2018-11-06T22:08:05.072Z,23.30
2018-11-06T22:10:38.143Z,23.20
2018-11-06T22:13:11.717Z,23.30
2018-11-06T22:15:44.435Z,23.70
2018-11-06T22:18:17.359Z,24.10
2018-11-06T22:20:50.574Z,24.60
2018-11-06T22:23:23.564Z,24.50
2018-11-06T22:25:56.057Z,24.40
2018-11-06T22:28:29.084Z,24.30
2018-11-06T22:31:26.105Z,23.90
2018-11-06T22:33:59.292Z,23.60
2018-11-06T22:36:32.238Z,23.60
2018-11-06T22:39:05.302Z,23.50
2018-11-06T22:41:38.715Z,23.40
2018-11-06T22:44:12.119Z,23.40
2018-11-06T22:46:45.565Z,23.40
2018-11-06T22:49:20.127Z,23.30
2018-11-06T22:51:53.220Z,23.20
2018-11-06T22:54:26.310Z,23.10
2018-11-06T22:56:59.562Z,23.00
2018-11-06T22:59:32.756Z,22.90
2018-11-06T23:02:05.858Z,22.80
2018-11-06T23:04:39.475Z,22.60
2018-11-06T23:07:18.784Z,22.50
2018-11-06T23:09:52.108Z,22.50
2018-11-06T23:12:25.331Z,22.30
2018-11-06T23:14:58.638Z,22.30
2018-11-06T23:17:31.975Z,22.20
2018-11-06T23:20:05.607Z,22.10
2018-11-06T23:22:38.750Z,22.00
2018-11-06T23:25:11.676Z,21.80
2018-11-06T23:27:44.792Z,21.70
2018-11-06T23:30:18.240Z,21.70
2018-11-06T23:35:30.539Z,21.50
2018-11-06T23:38:03.841Z,21.40
2018-11-06T23:40:37.285Z,21.40
2018-11-06T23:43:10.266Z,21.30
2018-11-06T23:45:43.286Z,21.20
2018-11-06T23:48:16.516Z,21.20
2018-11-06T23:50:50.559Z,21.10
2018-11-06T23:53:23.455Z,21.20
2018-11-06T23:55:57.018Z,21.10
2018-11-06T23:58:30.542Z,21.10
